Time;durP1;ratioP1;P1;durP2;ratioP2;P2;SDS_P1;SDS_P2;PMS_P1;PMS_P2;Temp;Humidity;BMP_temperature;BMP_pressure;BME280_temperature;BME280_humidity;BME280_pressure;Samples;Min_cycle;Max_cycle;Signal;HPM_P1;HPM_P2
2023/08/08 00:01:50;;;;;;;12.40;5.25;;;;;;;;;;5015077;28;20065;-63
2023/08/08 00:04:16;;;;;;;8.35;3.50;;;;;;;;;;5007856;28;20120;-63
2023/08/08 00:06:43;;;;;;;6.80;2.42;;;;;;;;;;5002258;28;20221;-63
2023/08/08 00:09:10;;;;;;;6.70;1.95;;;;;;;;;;5016555;28;20057;-63
2023/08/08 00:11:38;;;;;;;4.30;2.10;;;;;;;;;;4998627;28;20081;-63
2023/08/08 00:14:05;;;;;;;8.00;2.00;;;;;;;;;;5001244;28;20065;-64
2023/08/08 00:16:32;;;;;;;7.57;2.00;;;;;;;;;;5031074;28;20153;-63
2023/08/08 00:18:58;;;;;;;11.68;2.65;;;;;;;;;;5003239;28;20498;-66
2023/08/08 00:21:25;;;;;;;11.20;2.88;;;;;;;;;;5004906;28;20061;-65
2023/08/08 00:23:52;;;;;;;11.40;4.72;;;;;;;;;;5004621;28;20060;-63
2023/08/08 00:26:18;;;;;;;6.32;2.22;;;;;;;;;;5026975;28;20046;-63
2023/08/08 00:28:47;;;;;;;6.22;2.05;;;;;;;;;;5019850;28;20122;-63
2023/08/08 00:31:16;;;;;;;5.05;1.80;;;;;;;;;;5003570;28;20084;-63
2023/08/08 00:33:43;;;;;;;6.65;1.80;;;;;;;;;;5021889;28;20132;-63
2023/08/08 00:36:10;;;;;;;5.28;1.77;;;;;;;;;;4981823;28;20077;-63
2023/08/08 00:38:37;;;;;;;7.18;2.00;;;;;;;;;;4994152;28;20054;-65
2023/08/08 00:41:04;;;;;;;9.63;2.40;;;;;;;;;;4980040;28;20469;-63
2023/08/08 00:43:31;;;;;;;8.10;1.73;;;;;;;;;;4981807;28;20058;-65
2023/08/08 00:45:59;;;;;;;8.13;1.95;;;;;;;;;;4989677;28;20054;-63
2023/08/08 00:48:26;;;;;;;8.23;2.10;;;;;;;;;;4994557;28;20096;-63
2023/08/08 00:50:55;;;;;;;6.80;1.70;;;;;;;;;;4986059;28;20108;-63
2023/08/08 00:53:25;;;;;;;7.80;1.65;;;;;;;;;;5010125;28;20061;-63
2023/08/08 00:55:54;;;;;;;6.90;1.65;;;;;;;;;;4998865;28;20077;-63
2023/08/08 00:58:21;;;;;;;8.65;1.92;;;;;;;;;;4995737;28;20119;-62
2023/08/08 01:00:47;;;;;;;5.97;1.85;;;;;;;;;;5020741;28;20064;-63
2023/08/08 01:03:15;;;;;;;7.85;2.05;;;;;;;;;;5022013;28;20449;-62
2023/08/08 01:05:52;;;;;;;8.90;2.00;;;;;;;;;;5030433;28;20053;-63
2023/08/08 01:08:25;;;;;;;8.60;1.92;;;;;;;;;;5030131;28;20080;-64
2023/08/08 01:10:52;;;;;;;4.70;1.75;;;;;;;;;;5022201;28;20121;-63
2023/08/08 01:13:22;;;;;;;6.93;1.95;;;;;;;;;;5036090;28;20050;-63
2023/08/08 01:15:50;;;;;;;8.32;1.90;;;;;;;;;;5018243;28;20167;-63
2023/08/08 01:18:19;;;;;;;3.63;1.55;;;;;;;;;;5029900;28;20053;-64
2023/08/08 01:20:47;;;;;;;5.63;1.83;;;;;;;;;;5036784;28;20108;-63
2023/08/08 01:23:19;;;;;;;3.65;1.35;;;;;;;;;;5021714;28;20053;-63
2023/08/08 01:25:49;;;;;;;9.75;1.80;;;;;;;;;;4997897;28;20279;-63
2023/08/08 01:28:17;;;;;;;5.63;1.90;;;;;;;;;;5033213;28;20061;-63
2023/08/08 01:30:44;;;;;;;8.32;1.90;;;;;;;;;;5016865;28;20056;-63
2023/08/08 01:33:11;;;;;;;9.27;1.60;;;;;;;;;;5020787;28;20147;-64
2023/08/08 01:35:40;;;;;;;7.15;2.10;;;;;;;;;;5017530;28;20061;-63
2023/08/08 01:38:13;;;;;;;8.93;1.98;;;;;;;;;;5000443;28;20064;-64
2023/08/08 01:40:42;;;;;;;3.40;1.52;;;;;;;;;;5019761;28;20562;-63
2023/08/08 01:43:10;;;;;;;9.35;1.73;;;;;;;;;;5007352;28;20136;-64
2023/08/08 01:45:37;;;;;;;7.00;1.83;;;;;;;;;;4997112;28;20279;-63
2023/08/08 01:48:08;;;;;;;5.47;1.60;;;;;;;;;;5019856;28;20085;-63
2023/08/08 01:50:35;;;;;;;7.35;2.00;;;;;;;;;;5015235;28;20283;-63
2023/08/08 01:53:02;;;;;;;5.95;1.73;;;;;;;;;;5020822;28;20104;-63
2023/08/08 01:55:28;;;;;;;5.85;1.90;;;;;;;;;;5015491;28;20080;-63
2023/08/08 01:57:55;;;;;;;4.03;1.45;;;;;;;;;;5002867;28;20119;-62
2023/08/08 02:00:23;;;;;;;5.82;1.90;;;;;;;;;;4993184;28;20170;-64
2023/08/08 02:02:50;;;;;;;4.43;1.65;;;;;;;;;;5036339;28;20429;-64
2023/08/08 02:05:16;;;;;;;8.45;1.60;;;;;;;;;;4982217;28;20206;-63
2023/08/08 02:07:43;;;;;;;5.70;1.67;;;;;;;;;;4999959;28;20061;-63
2023/08/08 02:10:10;;;;;;;9.30;1.80;;;;;;;;;;5016827;28;20062;-64
2023/08/08 02:12:37;;;;;;;9.90;1.95;;;;;;;;;;4993973;28;20130;-63
2023/08/08 02:15:04;;;;;;;8.35;1.75;;;;;;;;;;4980335;28;20144;-63
2023/08/08 02:17:33;;;;;;;9.50;1.93;;;;;;;;;;4984168;28;20084;-63
2023/08/08 02:19:59;;;;;;;5.53;1.33;;;;;;;;;;5013680;28;20072;-63
2023/08/08 02:22:26;;;;;;;5.07;1.90;;;;;;;;;;4976573;28;20573;-63
2023/08/08 02:24:53;;;;;;;9.50;1.73;;;;;;;;;;4993755;28;20069;-62
2023/08/08 02:27:20;;;;;;;5.13;1.85;;;;;;;;;;4982747;28;20089;-63
2023/08/08 02:29:46;;;;;;;5.28;1.58;;;;;;;;;;4997730;28;20046;-63
2023/08/08 02:32:14;;;;;;;10.48;1.70;;;;;;;;;;4978615;28;20065;-65
2023/08/08 02:34:42;;;;;;;9.00;1.98;;;;;;;;;;4992096;28;20505;-63
2023/08/08 02:37:09;;;;;;;6.03;1.60;;;;;;;;;;5001858;28;20136;-63
2023/08/08 02:39:35;;;;;;;8.85;1.83;;;;;;;;;;4998943;28;20050;-65
2023/08/08 02:42:02;;;;;;;6.53;1.48;;;;;;;;;;4982771;28;20159;-63
2023/08/08 02:44:29;;;;;;;5.15;1.60;;;;;;;;;;4947411;28;20474;-63
2023/08/08 02:46:56;;;;;;;8.30;1.67;;;;;;;;;;4983362;28;20062;-63
2023/08/08 02:49:22;;;;;;;5.03;1.80;;;;;;;;;;4983075;28;20101;-63
2023/08/08 02:51:50;;;;;;;9.27;1.90;;;;;;;;;;5000549;28;20080;-63
2023/08/08 02:54:17;;;;;;;2.88;1.60;;;;;;;;;;4990164;28;20109;-63
2023/08/08 02:56:44;;;;;;;4.35;1.38;;;;;;;;;;5003833;28;20049;-63
2023/08/08 02:59:11;;;;;;;9.05;1.50;;;;;;;;;;4994724;28;20065;-63
2023/08/08 03:01:39;;;;;;;6.72;2.58;;;;;;;;;;5015816;28;20066;-63
2023/08/08 03:04:06;;;;;;;7.63;1.98;;;;;;;;;;5013076;28;20044;-64
2023/08/08 03:06:33;;;;;;;6.30;1.80;;;;;;;;;;4998645;28;22231;-63
2023/08/08 03:09:01;;;;;;;7.25;1.65;;;;;;;;;;5001245;28;20060;-63
2023/08/08 03:11:28;;;;;;;5.82;1.77;;;;;;;;;;5034308;28;20061;-63
2023/08/08 03:13:55;;;;;;;7.82;2.20;;;;;;;;;;4979074;28;20478;-63
2023/08/08 03:16:21;;;;;;;7.88;1.90;;;;;;;;;;4974910;28;20116;-63
2023/08/08 03:18:48;;;;;;;7.60;2.42;;;;;;;;;;4983751;28;20078;-64
2023/08/08 03:21:15;;;;;;;7.28;2.38;;;;;;;;;;4997841;28;20498;-63
2023/08/08 03:23:41;;;;;;;12.00;2.17;;;;;;;;;;4978888;28;20060;-64
2023/08/08 03:26:10;;;;;;;8.27;2.17;;;;;;;;;;4981210;28;20062;-63
2023/08/08 03:28:37;;;;;;;7.90;2.38;;;;;;;;;;4980151;28;20050;-63
2023/08/08 03:31:04;;;;;;;9.32;2.28;;;;;;;;;;4998698;28;20085;-63
2023/08/08 03:33:31;;;;;;;7.63;2.10;;;;;;;;;;4982834;28;20058;-63
2023/08/08 03:35:57;;;;;;;11.23;2.28;;;;;;;;;;4977660;28;20069;-63
2023/08/08 03:38:24;;;;;;;8.40;2.60;;;;;;;;;;4975096;28;20152;-64
2023/08/08 03:40:51;;;;;;;9.35;2.50;;;;;;;;;;4982068;28;20065;-63
2023/08/08 03:43:19;;;;;;;14.50;2.65;;;;;;;;;;4982031;28;20074;-63
2023/08/08 03:45:47;;;;;;;5.57;1.90;;;;;;;;;;4978599;28;20096;-63
2023/08/08 03:48:13;;;;;;;8.20;2.58;;;;;;;;;;4976202;28;20060;-63
2023/08/08 03:50:40;;;;;;;12.45;2.55;;;;;;;;;;5024697;28;20068;-63
2023/08/08 03:53:07;;;;;;;8.93;2.80;;;;;;;;;;5003715;28;20050;-64
2023/08/08 03:55:34;;;;;;;6.40;2.38;;;;;;;;;;5001873;28;20045;-63
2023/08/08 03:58:00;;;;;;;8.65;2.33;;;;;;;;;;5005763;28;20152;-63
2023/08/08 04:00:28;;;;;;;13.40;2.78;;;;;;;;;;5021539;28;20083;-65
2023/08/08 04:02:55;;;;;;;10.40;2.58;;;;;;;;;;5017799;28;20464;-63
2023/08/08 04:05:22;;;;;;;7.45;2.58;;;;;;;;;;5002757;28;20053;-64
2023/08/08 04:07:49;;;;;;;8.57;2.50;;;;;;;;;;5001834;28;20089;-65
2023/08/08 04:10:15;;;;;;;7.15;2.13;;;;;;;;;;4996606;28;20058;-65
2023/08/08 04:12:42;;;;;;;10.10;2.58;;;;;;;;;;5003175;28;20061;-63
2023/08/08 04:15:10;;;;;;;8.43;2.63;;;;;;;;;;4999960;28;20073;-63
2023/08/08 04:17:38;;;;;;;10.93;2.63;;;;;;;;;;5003060;28;20068;-63
2023/08/08 04:20:06;;;;;;;9.63;2.40;;;;;;;;;;5001513;28;20064;-63
2023/08/08 04:22:33;;;;;;;9.25;2.70;;;;;;;;;;4996240;28;21219;-63
2023/08/08 04:25:01;;;;;;;8.88;2.45;;;;;;;;;;4995716;28;20057;-63
2023/08/08 04:27:27;;;;;;;7.75;2.80;;;;;;;;;;5000927;28;20053;-64
2023/08/08 04:29:55;;;;;;;6.57;2.55;;;;;;;;;;5002889;28;20054;-63
2023/08/08 04:32:22;;;;;;;6.13;2.42;;;;;;;;;;4996084;28;20077;-63
2023/08/08 04:34:50;;;;;;;10.30;2.60;;;;;;;;;;5000077;28;20268;-63
2023/08/08 04:37:17;;;;;;;8.25;2.97;;;;;;;;;;5000342;28;20045;-63
2023/08/08 04:39:44;;;;;;;25.95;9.63;;;;;;;;;;5001586;28;20068;-64
2023/08/08 04:42:10;;;;;;;9.63;3.83;;;;;;;;;;4995751;28;20084;-64
2023/08/08 04:44:37;;;;;;;10.13;2.97;;;;;;;;;;4989323;28;20057;-64
2023/08/08 04:47:05;;;;;;;13.57;3.08;;;;;;;;;;5015100;28;20131;-64
2023/08/08 04:49:32;;;;;;;10.25;2.75;;;;;;;;;;4998041;28;20064;-63
2023/08/08 04:52:00;;;;;;;10.30;2.40;;;;;;;;;;5002446;28;20046;-64
2023/08/08 04:54:27;;;;;;;7.78;2.38;;;;;;;;;;4987078;28;20053;-64
2023/08/08 04:56:54;;;;;;;11.05;3.05;;;;;;;;;;5000224;28;20116;-64
2023/08/08 04:59:20;;;;;;;6.25;2.38;;;;;;;;;;4997990;28;20065;-63
2023/08/08 05:01:47;;;;;;;9.68;2.92;;;;;;;;;;5008413;28;20049;-64
2023/08/08 05:04:14;;;;;;;9.07;2.80;;;;;;;;;;4991982;28;20057;-66
2023/08/08 05:06:41;;;;;;;8.18;2.72;;;;;;;;;;5001322;28;20057;-63
2023/08/08 05:09:09;;;;;;;11.00;2.92;;;;;;;;;;5016988;28;20078;-63
2023/08/08 05:11:36;;;;;;;10.75;3.00;;;;;;;;;;5033904;28;20442;-63
2023/08/08 05:14:03;;;;;;;26.27;9.43;;;;;;;;;;5014184;28;20076;-63
2023/08/08 05:16:30;;;;;;;52.42;22.23;;;;;;;;;;4994536;28;20057;-66
2023/08/08 05:18:57;;;;;;;13.02;5.65;;;;;;;;;;5018404;28;20115;-63
2023/08/08 05:21:24;;;;;;;10.70;3.28;;;;;;;;;;5050478;28;20081;-63
2023/08/08 05:23:50;;;;;;;8.02;3.10;;;;;;;;;;5002957;28;20168;-63
2023/08/08 05:26:18;;;;;;;9.98;2.97;;;;;;;;;;4993464;28;20085;-64
2023/08/08 05:28:45;;;;;;;7.22;2.53;;;;;;;;;;4980444;28;20068;-63
2023/08/08 05:31:12;;;;;;;7.47;2.60;;;;;;;;;;4979884;28;20058;-63
2023/08/08 05:33:39;;;;;;;9.50;2.78;;;;;;;;;;4961788;28;20050;-64
2023/08/08 05:36:06;;;;;;;7.13;2.90;;;;;;;;;;4976155;28;20081;-64
2023/08/08 05:38:33;;;;;;;10.55;2.90;;;;;;;;;;4974465;28;20058;-64
2023/08/08 05:40:59;;;;;;;11.07;2.85;;;;;;;;;;4982034;28;20054;-62
2023/08/08 05:43:28;;;;;;;9.95;2.53;;;;;;;;;;5012386;28;20138;-64
2023/08/08 05:45:55;;;;;;;13.68;3.00;;;;;;;;;;4990295;28;20070;-64
2023/08/08 05:48:22;;;;;;;14.18;3.00;;;;;;;;;;4988476;28;20066;-64
2023/08/08 05:50:49;;;;;;;10.63;2.85;;;;;;;;;;4990140;28;20501;-64
2023/08/08 05:53:15;;;;;;;9.45;2.60;;;;;;;;;;5015421;28;20054;-64
2023/08/08 05:55:43;;;;;;;11.18;2.60;;;;;;;;;;5011585;28;20057;-65
2023/08/08 05:58:10;;;;;;;12.20;2.38;;;;;;;;;;5027185;28;20142;-66
2023/08/08 06:00:40;;;;;;;6.88;2.22;;;;;;;;;;5003333;28;20306;-64
2023/08/08 06:03:07;;;;;;;7.75;2.10;;;;;;;;;;4999092;28;20053;-63
2023/08/08 06:05:34;;;;;;;7.90;2.20;;;;;;;;;;5007536;28;20065;-65
2023/08/08 06:08:00;;;;;;;14.18;2.45;;;;;;;;;;5021552;28;20057;-63
2023/08/08 06:10:27;;;;;;;3.67;1.70;;;;;;;;;;5010187;28;20060;-63
2023/08/08 06:12:54;;;;;;;9.80;2.60;;;;;;;;;;5006194;28;20099;-63
2023/08/08 06:15:21;;;;;;;8.95;2.15;;;;;;;;;;5011049;28;20068;-63
2023/08/08 06:17:49;;;;;;;9.07;1.85;;;;;;;;;;5003551;28;20072;-63
2023/08/08 06:20:17;;;;;;;8.82;2.42;;;;;;;;;;4994648;28;20116;-64
2023/08/08 06:22:43;;;;;;;5.75;1.83;;;;;;;;;;4999995;28;20065;-63
2023/08/08 06:25:10;;;;;;;9.32;1.98;;;;;;;;;;5013497;28;20050;-63
2023/08/08 06:27:37;;;;;;;6.78;1.80;;;;;;;;;;4999380;28;20159;-63
2023/08/08 06:30:08;;;;;;;9.38;1.75;;;;;;;;;;5000934;28;20220;-64
2023/08/08 06:32:34;;;;;;;7.85;1.55;;;;;;;;;;5016341;28;20064;-63
2023/08/08 06:35:03;;;;;;;7.53;1.50;;;;;;;;;;4986300;28;20061;-64
2023/08/08 06:37:30;;;;;;;9.93;2.20;;;;;;;;;;4982255;28;20054;-63
2023/08/08 06:39:57;;;;;;;12.27;3.42;;;;;;;;;;4981120;28;20117;-64
2023/08/08 06:42:24;;;;;;;12.98;1.40;;;;;;;;;;4980020;28;20057;-64
2023/08/08 06:44:50;;;;;;;6.00;1.63;;;;;;;;;;4995117;28;20065;-65
2023/08/08 06:47:17;;;;;;;10.27;3.38;;;;;;;;;;4998899;28;20058;-65
2023/08/08 06:49:44;;;;;;;11.02;1.70;;;;;;;;;;5000120;28;20177;-65
2023/08/08 06:52:13;;;;;;;4.55;1.40;;;;;;;;;;4995253;28;20062;-64
2023/08/08 06:54:40;;;;;;;12.85;1.90;;;;;;;;;;4992328;28;20065;-64
2023/08/08 06:57:07;;;;;;;4.15;1.48;;;;;;;;;;4997829;28;20092;-67
2023/08/08 06:59:33;;;;;;;4.63;1.17;;;;;;;;;;4981385;28;20544;-64
2023/08/08 07:02:00;;;;;;;5.07;1.08;;;;;;;;;;5001695;28;20062;-64
2023/08/08 07:04:27;;;;;;;3.72;1.10;;;;;;;;;;5011002;28;20107;-63
2023/08/08 07:06:54;;;;;;;3.83;1.08;;;;;;;;;;5024599;28;20053;-64
2023/08/08 07:09:25;;;;;;;3.78;1.23;;;;;;;;;;5022308;28;20052;-64
2023/08/08 07:11:52;;;;;;;2.38;1.00;;;;;;;;;;5014441;28;20054;-65
2023/08/08 07:14:19;;;;;;;6.22;0.90;;;;;;;;;;5009229;28;20061;-65
2023/08/08 07:16:45;;;;;;;3.80;0.98;;;;;;;;;;5020348;28;20057;-64
2023/08/08 07:19:12;;;;;;;2.42;1.02;;;;;;;;;;5003409;28;20146;-65
2023/08/08 07:21:39;;;;;;;5.40;0.93;;;;;;;;;;5024242;28;20054;-64
2023/08/08 07:24:08;;;;;;;1.77;0.85;;;;;;;;;;5000243;28;20080;-64
2023/08/08 07:26:40;;;;;;;6.90;1.77;;;;;;;;;;5002666;28;20155;-64
2023/08/08 07:29:07;;;;;;;6.25;1.60;;;;;;;;;;5022917;28;20173;-63
2023/08/08 07:31:37;;;;;;;12.02;3.28;;;;;;;;;;5024514;28;20068;-64
2023/08/08 07:34:04;;;;;;;3.28;0.95;;;;;;;;;;5000680;28;20057;-63
2023/08/08 07:36:32;;;;;;;2.38;0.85;;;;;;;;;;5018655;28;20045;-65
2023/08/08 07:38:59;;;;;;;2.15;0.75;;;;;;;;;;5024294;28;20061;-65
2023/08/08 07:41:31;;;;;;;1.90;0.63;;;;;;;;;;5026495;28;20063;-63
2023/08/08 07:44:02;;;;;;;2.30;0.68;;;;;;;;;;5001833;28;20392;-64
2023/08/08 07:46:29;;;;;;;3.35;0.70;;;;;;;;;;5017473;28;20357;-65
2023/08/08 07:48:59;;;;;;;6.85;1.75;;;;;;;;;;5006194;28;20068;-65
2023/08/08 07:51:26;;;;;;;3.60;1.25;;;;;;;;;;5022956;28;20111;-66
2023/08/08 07:53:52;;;;;;;4.75;1.05;;;;;;;;;;5008050;28;20130;-65
2023/08/08 07:56:19;;;;;;;1.20;0.57;;;;;;;;;;4994341;28;20054;-65
2023/08/08 07:58:46;;;;;;;1.98;0.77;;;;;;;;;;5017399;28;20058;-66
2023/08/08 08:01:14;;;;;;;2.20;0.45;;;;;;;;;;5003867;28;20062;-65
2023/08/08 08:03:41;;;;;;;2.97;0.63;;;;;;;;;;4982828;28;20058;-67
2023/08/08 08:06:11;;;;;;;3.90;0.80;;;;;;;;;;5004063;28;20061;-66
2023/08/08 08:08:38;;;;;;;5.40;1.45;;;;;;;;;;5036390;28;20053;-66
2023/08/08 08:11:05;;;;;;;3.05;1.15;;;;;;;;;;5021955;28;20057;-66
2023/08/08 08:13:32;;;;;;;1.58;0.65;;;;;;;;;;5023099;28;20057;-65
2023/08/08 08:15:59;;;;;;;4.10;1.02;;;;;;;;;;4997028;28;20072;-66
2023/08/08 08:18:28;;;;;;;3.85;0.80;;;;;;;;;;4994805;28;20505;-67
2023/08/08 08:20:55;;;;;;;2.78;0.40;;;;;;;;;;5017561;28;20085;-66
2023/08/08 08:23:22;;;;;;;1.48;0.52;;;;;;;;;;5004306;28;20066;-67
2023/08/08 08:25:52;;;;;;;3.53;0.70;;;;;;;;;;5000085;28;20050;-65
2023/08/08 08:28:19;;;;;;;4.38;0.98;;;;;;;;;;5011668;28;20061;-66
2023/08/08 08:30:45;;;;;;;2.88;0.60;;;;;;;;;;5004408;28;20070;-66
2023/08/08 08:33:12;;;;;;;4.82;0.90;;;;;;;;;;5022300;28;20054;-65
2023/08/08 08:35:40;;;;;;;3.83;0.70;;;;;;;;;;5010353;28;20404;-65
2023/08/08 08:38:08;;;;;;;1.23;0.43;;;;;;;;;;5021007;28;20076;-65
2023/08/08 08:40:39;;;;;;;2.63;0.60;;;;;;;;;;5016526;28;20085;-65
2023/08/08 08:43:08;;;;;;;3.38;0.80;;;;;;;;;;5019188;28;20052;-64
2023/08/08 08:45:39;;;;;;;2.88;0.70;;;;;;;;;;5013804;28;20065;-66
2023/08/08 08:48:10;;;;;;;0.80;0.52;;;;;;;;;;5002494;28;20054;-65
2023/08/08 08:50:39;;;;;;;1.67;0.50;;;;;;;;;;5011456;28;20061;-65
2023/08/08 08:53:08;;;;;;;2.95;0.90;;;;;;;;;;4997921;28;20050;-66
2023/08/08 08:55:35;;;;;;;2.83;0.50;;;;;;;;;;4982454;28;20078;-66
2023/08/08 08:58:02;;;;;;;6.22;0.60;;;;;;;;;;4983223;28;20062;-65
2023/08/08 09:00:31;;;;;;;4.67;0.70;;;;;;;;;;4974885;28;20069;-65
2023/08/08 09:02:58;;;;;;;3.20;0.43;;;;;;;;;;4993845;28;20373;-66
2023/08/08 09:05:26;;;;;;;3.72;1.00;;;;;;;;;;4973799;28;20105;-66
2023/08/08 09:07:52;;;;;;;5.03;1.63;;;;;;;;;;5005702;28;20120;-66
2023/08/08 09:10:21;;;;;;;2.60;0.60;;;;;;;;;;4992143;28;20080;-66
2023/08/08 09:12:48;;;;;;;3.78;0.80;;;;;;;;;;5006601;28;20112;-66
2023/08/08 09:15:15;;;;;;;0.65;0.47;;;;;;;;;;4981295;28;20058;-67
2023/08/08 09:17:43;;;;;;;3.13;0.70;;;;;;;;;;4981490;28;20062;-65
2023/08/08 09:20:13;;;;;;;5.65;0.60;;;;;;;;;;4978247;28;20065;-67
2023/08/08 09:22:40;;;;;;;3.80;0.70;;;;;;;;;;4979846;28;20069;-64
2023/08/08 09:25:08;;;;;;;1.52;0.60;;;;;;;;;;4993815;28;20057;-64
2023/08/08 09:27:37;;;;;;;0.88;0.50;;;;;;;;;;5009729;28;20069;-64
2023/08/08 09:30:07;;;;;;;1.25;0.45;;;;;;;;;;4999824;28;20090;-65
2023/08/08 09:32:35;;;;;;;0.47;0.40;;;;;;;;;;4994997;28;20054;-65
2023/08/08 09:35:02;;;;;;;1.38;0.50;;;;;;;;;;4997759;28;20062;-64
2023/08/08 09:37:30;;;;;;;0.68;0.57;;;;;;;;;;5015022;28;20081;-65
2023/08/08 09:39:57;;;;;;;2.63;0.50;;;;;;;;;;4998907;28;20107;-65
2023/08/08 09:42:25;;;;;;;2.15;0.55;;;;;;;;;;4988178;28;20429;-65
2023/08/08 09:44:53;;;;;;;1.48;0.60;;;;;;;;;;4981224;28;20207;-65
2023/08/08 09:47:21;;;;;;;;;;;;;;;;;;5003435;28;20064;-64
2023/08/08 09:49:49;;;;;;;1.30;0.50;;;;;;;;;;4997396;28;20028;-65
2023/08/08 09:52:18;;;;;;;2.47;0.60;;;;;;;;;;4996503;28;20050;-64
2023/08/08 09:54:46;;;;;;;1.23;0.50;;;;;;;;;;4995147;28;20060;-64
2023/08/08 09:57:12;;;;;;;1.37;0.57;;;;;;;;;;5006613;28;20057;-65
2023/08/08 09:59:41;;;;;;;0.43;0.35;;;;;;;;;;5004535;28;20307;-64
2023/08/08 10:02:14;;;;;;;1.05;0.68;;;;;;;;;;5015916;28;20149;-65
2023/08/08 10:04:42;;;;;;;0.60;0.30;;;;;;;;;;4975930;28;20064;-65
2023/08/08 10:07:12;;;;;;;1.45;0.55;;;;;;;;;;5007301;28;20169;-64
2023/08/08 10:09:39;;;;;;;1.80;0.60;;;;;;;;;;5014090;28;20077;-65
2023/08/08 10:12:07;;;;;;;0.57;0.55;;;;;;;;;;5001836;28;20208;-65
2023/08/08 10:14:37;;;;;;;1.75;0.52;;;;;;;;;;4980050;28;20057;-65
2023/08/08 10:17:05;;;;;;;1.25;0.50;;;;;;;;;;4998154;28;20049;-65
2023/08/08 10:19:33;;;;;;;3.53;0.77;;;;;;;;;;4998132;28;20054;-64
2023/08/08 10:22:04;;;;;;;1.30;0.47;;;;;;;;;;5011154;28;20066;-64
2023/08/08 10:24:35;;;;;;;1.13;0.55;;;;;;;;;;5010014;28;20057;-65
2023/08/08 10:27:04;;;;;;;2.28;0.80;;;;;;;;;;5019084;28;20069;-65
2023/08/08 10:29:32;;;;;;;4.32;1.80;;;;;;;;;;5019448;28;20061;-65
2023/08/08 10:31:59;;;;;;;;;;;;;;;;;;5022793;28;20057;-64
2023/08/08 10:34:37;;;;;;;4.75;0.80;;;;;;;;;;5006541;28;19936;-65
2023/08/08 10:37:10;;;;;;;0.98;0.70;;;;;;;;;;5017553;28;20061;-66
2023/08/08 10:39:37;;;;;;;2.35;0.70;;;;;;;;;;5000166;28;20070;-66
2023/08/08 10:42:05;;;;;;;1.08;0.70;;;;;;;;;;4999240;28;20053;-65
2023/08/08 10:44:32;;;;;;;;;;;;;;;;;;4985659;28;20096;-65
2023/08/08 10:47:01;;;;;;;2.25;0.60;;;;;;;;;;5000910;28;19933;-65
2023/08/08 10:49:28;;;;;;;5.03;0.77;;;;;;;;;;4999039;28;20053;-67
2023/08/08 10:51:55;;;;;;;2.38;0.80;;;;;;;;;;4999358;28;20049;-65
2023/08/08 10:54:28;;;;;;;2.40;1.13;;;;;;;;;;4999952;28;20061;-65
2023/08/08 10:56:56;;;;;;;1.70;0.68;;;;;;;;;;5010376;28;20054;-65
2023/08/08 10:59:24;;;;;;;1.60;0.70;;;;;;;;;;4998408;28;20065;-65
2023/08/08 11:01:52;;;;;;;2.30;1.15;;;;;;;;;;5014432;28;20045;-66
2023/08/08 11:04:25;;;;;;;1.33;0.75;;;;;;;;;;4990638;28;20079;-66
2023/08/08 11:06:55;;;;;;;6.82;0.80;;;;;;;;;;5001795;28;20149;-65
2023/08/08 11:09:23;;;;;;;1.20;0.70;;;;;;;;;;5012886;28;20054;-68
2023/08/08 11:11:50;;;;;;;1.13;0.57;;;;;;;;;;5000571;28;20054;-65
2023/08/08 11:14:22;;;;;;;1.23;0.80;;;;;;;;;;4989507;28;20155;-65
2023/08/08 11:16:51;;;;;;;1.67;0.60;;;;;;;;;;4997313;28;20049;-66
2023/08/08 11:19:19;;;;;;;1.52;0.52;;;;;;;;;;4994592;28;20054;-65
2023/08/08 11:21:49;;;;;;;2.30;0.60;;;;;;;;;;4996371;28;20053;-67
2023/08/08 11:24:19;;;;;;;2.20;0.80;;;;;;;;;;4943489;28;20122;-70
2023/08/08 11:26:54;;;;;;;2.33;0.90;;;;;;;;;;4987332;28;20141;-67
2023/08/08 11:29:30;;;;;;;1.35;0.70;;;;;;;;;;4978414;28;20058;-66
2023/08/08 11:32:35;;;;;;;3.47;1.05;;;;;;;;;;4983966;28;20249;-66
2023/08/08 11:35:03;;;;;;;2.00;0.80;;;;;;;;;;4950416;28;20049;-66
2023/08/08 11:37:32;;;;;;;2.20;0.85;;;;;;;;;;5001898;28;20065;-67
2023/08/08 11:39:59;;;;;;;1.85;0.70;;;;;;;;;;4997924;28;20053;-67
2023/08/08 11:42:35;;;;;;;2.40;0.93;;;;;;;;;;4991458;28;20057;-68
2023/08/08 11:45:09;;;;;;;2.80;0.98;;;;;;;;;;5002137;28;20057;-65
2023/08/08 11:47:50;;;;;;;2.45;1.02;;;;;;;;;;5004577;28;20072;-67
2023/08/08 11:50:29;;;;;;;2.35;1.05;;;;;;;;;;5001662;28;20108;-69
2023/08/08 11:52:56;;;;;;;0.93;0.47;;;;;;;;;;5014406;28;20073;-68
2023/08/08 11:55:36;;;;;;;1.83;0.85;;;;;;;;;;4944668;28;20061;-67
2023/08/08 12:00:58;;;;;;;3.95;1.83;;;;;;;;;;5002763;28;20080;-67
2023/08/08 12:03:32;;;;;;;2.22;1.27;;;;;;;;;;5002522;28;20060;-67
2023/08/08 12:06:19;;;;;;;2.55;0.80;;;;;;;;;;4984469;28;20145;-67
2023/08/08 12:08:55;;;;;;;4.45;1.13;;;;;;;;;;5040242;28;20048;-68
2023/08/08 12:11:40;;;;;;;;;;;;;;;;;;;;;
2023/08/08 12:14:19;;;;;;;1.63;0.88;;;;;;;;;;5019797;28;20053;-67
2023/08/08 12:16:53;;;;;;;3.78;1.80;;;;;;;;;;5027185;28;20052;-67
2023/08/08 12:19:45;;;;;;;3.30;0.80;;;;;;;;;;5019075;28;20080;-67
2023/08/08 12:22:24;;;;;;;1.90;0.80;;;;;;;;;;5020959;28;20065;-68
2023/08/08 12:24:52;;;;;;;;;;;;;;;;;;4981097;28;20049;-68
2023/08/08 12:27:38;;;;;;;3.22;1.02;;;;;;;;;;5019405;28;19929;-66
2023/08/08 12:30:16;;;;;;;2.33;0.90;;;;;;;;;;5036618;28;20127;-67
2023/08/08 12:32:47;;;;;;;1.27;0.60;;;;;;;;;;5019949;28;20213;-68
2023/08/08 12:35:17;;;;;;;1.00;0.70;;;;;;;;;;4945752;28;20046;-65
2023/08/08 12:44:06;;;;;;;11.27;4.70;;;;;;;;;;4976889;28;20137;-69
2023/08/08 12:46:35;;;;;;;2.42;1.00;;;;;;;;;;4951041;28;20061;-66
2023/08/08 12:49:14;;;;;;;;;;;;;;;;;;;;;
2023/08/08 12:51:41;;;;;;;2.90;1.35;;;;;;;;;;5001149;28;20054;-67
2023/08/08 12:54:31;;;;;;;3.95;0.77;;;;;;;;;;5011719;28;20140;-66
2023/08/08 12:57:06;;;;;;;3.17;0.90;;;;;;;;;;4978452;28;20053;-67
2023/08/08 12:59:37;;;;;;;1.13;0.60;;;;;;;;;;5005081;28;20046;-67
2023/08/08 13:02:11;;;;;;;1.00;0.70;;;;;;;;;;5022108;28;20086;-66
2023/08/08 13:04:42;;;;;;;2.30;0.80;;;;;;;;;;4961220;28;21495;-68
2023/08/08 13:07:10;;;;;;;2.90;0.85;;;;;;;;;;4990284;28;20065;-67
2023/08/08 13:09:37;;;;;;;3.60;1.00;;;;;;;;;;4983681;28;20120;-66
2023/08/08 13:15:10;;;;;;;7.57;1.00;;;;;;;;;;4947543;28;20100;-67
2023/08/08 13:17:38;;;;;;;2.15;0.80;;;;;;;;;;4994041;28;20041;-66
2023/08/08 13:20:12;;;;;;;1.98;0.65;;;;;;;;;;5024754;28;20049;-68
2023/08/08 13:22:42;;;;;;;3.47;0.80;;;;;;;;;;5005680;28;20062;-67
2023/08/08 13:25:10;;;;;;;5.43;0.85;;;;;;;;;;5017269;28;20140;-66
2023/08/08 13:27:37;;;;;;;2.87;0.90;;;;;;;;;;5003412;28;20049;-66
2023/08/08 13:30:16;;;;;;;2.65;0.90;;;;;;;;;;5018588;28;20053;-67
2023/08/08 13:32:44;;;;;;;4.40;0.70;;;;;;;;;;5006553;28;20134;-65
2023/08/08 13:35:11;;;;;;;5.15;1.17;;;;;;;;;;4997972;28;20107;-66
2023/08/08 13:37:38;;;;;;;3.67;0.80;;;;;;;;;;5001546;28;20057;-65
2023/08/08 13:40:18;;;;;;;4.03;1.10;;;;;;;;;;5016841;28;20077;-65
2023/08/08 13:42:47;;;;;;;1.10;0.90;;;;;;;;;;5008015;28;20068;-65
2023/08/08 13:45:14;;;;;;;4.50;1.33;;;;;;;;;;4998840;28;20064;-66
2023/08/08 13:47:41;;;;;;;6.63;2.40;;;;;;;;;;5035752;28;20057;-65
2023/08/08 13:50:17;;;;;;;5.03;1.10;;;;;;;;;;5018953;28;20061;-66
2023/08/08 13:52:44;;;;;;;1.60;0.80;;;;;;;;;;5022949;28;20049;-67
2023/08/08 13:55:11;;;;;;;3.20;0.70;;;;;;;;;;4980184;28;20133;-66
2023/08/08 13:57:38;;;;;;;2.30;0.73;;;;;;;;;;5000017;28;20056;-67
2023/08/08 14:00:16;;;;;;;5.90;1.00;;;;;;;;;;5001480;28;20064;-66
2023/08/08 14:02:43;;;;;;;3.25;0.93;;;;;;;;;;5019091;28;20081;-67
2023/08/08 14:05:13;;;;;;;2.78;0.88;;;;;;;;;;5002836;28;20053;-66
2023/08/08 14:07:40;;;;;;;3.03;0.70;;;;;;;;;;5014752;28;20065;-66
2023/08/08 14:10:25;;;;;;;3.78;0.82;;;;;;;;;;5004596;28;20042;-67
2023/08/08 14:12:52;;;;;;;1.40;0.90;;;;;;;;;;5002617;28;20053;-67
2023/08/08 14:15:19;;;;;;;2.42;0.80;;;;;;;;;;5016922;28;20052;-67
2023/08/08 14:17:46;;;;;;;1.55;0.75;;;;;;;;;;5007506;28;20057;-66
2023/08/08 14:20:15;;;;;;;1.98;0.70;;;;;;;;;;5034010;28;20056;-68
2023/08/08 14:22:45;;;;;;;4.10;0.80;;;;;;;;;;5024649;28;20059;-66
2023/08/08 14:25:12;;;;;;;4.00;0.95;;;;;;;;;;4998273;28;20049;-65
2023/08/08 14:27:39;;;;;;;2.83;0.80;;;;;;;;;;5003224;28;20048;-65
2023/08/08 14:30:10;;;;;;;0.77;0.65;;;;;;;;;;4998957;28;20211;-65
2023/08/08 14:32:37;;;;;;;5.40;0.73;;;;;;;;;;4996043;28;20061;-65
2023/08/08 14:35:10;;;;;;;3.97;1.63;;;;;;;;;;5015721;28;20081;-65
2023/08/08 14:37:38;;;;;;;3.35;0.80;;;;;;;;;;5001790;28;20103;-64
2023/08/08 14:40:14;;;;;;;;;;;;;;;;;;5038345;28;20065;-66
2023/08/08 14:42:40;;;;;;;3.47;0.80;;;;;;;;;;5015634;28;19931;-66
2023/08/08 14:45:08;;;;;;;0.68;0.65;;;;;;;;;;4988303;28;20061;-65
2023/08/08 14:47:35;;;;;;;2.47;0.87;;;;;;;;;;5019131;28;20057;-65
2023/08/08 14:50:02;;;;;;;1.38;0.80;;;;;;;;;;5000895;28;20300;-65
2023/08/08 14:52:29;;;;;;;2.33;0.80;;;;;;;;;;4993829;28;20065;-67
2023/08/08 14:54:57;;;;;;;6.88;0.75;;;;;;;;;;4967161;28;20064;-65
2023/08/08 14:57:25;;;;;;;3.90;0.70;;;;;;;;;;4980659;28;20057;-66
2023/08/08 14:59:52;;;;;;;2.05;0.98;;;;;;;;;;5020620;28;20049;-67
2023/08/08 15:02:20;;;;;;;2.40;0.75;;;;;;;;;;4995159;28;20165;-67
2023/08/08 15:04:47;;;;;;;2.35;0.80;;;;;;;;;;5010202;28;20053;-67
2023/08/08 15:07:14;;;;;;;2.42;0.80;;;;;;;;;;4991819;28;20050;-66